Time;durP1;ratioP1;P1;durP2;ratioP2;P2;SDS_P1;SDS_P2;PMS_P1;PMS_P2;Temp;Humidity;BMP_temperature;BMP_pressure;BME280_temperature;BME280_humidity;BME280_pressure;Samples;Min_cycle;Max_cycle;Signal;HPM_P1;HPM_P2
2022/04/25 00:00:09;;;;;;;;;;;9.50;99.90;;;;;;5107396;28;20032;-70
2022/04/25 00:02:35;;;;;;;;;;;9.50;99.90;;;;;;5102135;28;19915;-68
2022/04/25 00:05:01;;;;;;;;;;;9.40;99.90;;;;;;5088565;28;19915;-70
2022/04/25 00:07:27;;;;;;;;;;;9.40;99.90;;;;;;5105566;28;19908;-69
2022/04/25 00:09:53;;;;;;;;;;;9.30;99.90;;;;;;5103940;28;19915;-68
2022/04/25 00:12:18;;;;;;;;;;;9.20;99.90;;;;;;5095127;28;20014;-68
2022/04/25 00:14:44;;;;;;;;;;;9.20;99.90;;;;;;5105646;28;20365;-70
2022/04/25 00:17:09;;;;;;;;;;;9.20;99.90;;;;;;5111317;28;20069;-68
2022/04/25 00:19:38;;;;;;;;;;;9.20;99.90;;;;;;5110446;28;19923;-68
2022/04/25 00:22:03;;;;;;;;;;;9.20;99.90;;;;;;5100066;28;19915;-69
2022/04/25 00:24:29;;;;;;;;;;;9.10;99.90;;;;;;5120493;27;19903;-69
2022/04/25 00:26:55;;;;;;;;;;;9.00;99.90;;;;;;5104130;27;19915;-69
2022/04/25 00:29:21;;;;;;;;;;;9.00;99.90;;;;;;5110209;28;20319;-69
2022/04/25 00:31:47;;;;;;;;;;;9.00;99.90;;;;;;5104821;28;19931;-69
2022/04/25 00:34:12;;;;;;;;;;;8.90;99.90;;;;;;5106642;28;20294;-69
2022/04/25 00:36:38;;;;;;;;;;;8.80;99.90;;;;;;5109710;28;19907;-68
2022/04/25 00:39:03;;;;;;;;;;;8.80;99.90;;;;;;5111152;28;19950;-68
2022/04/25 00:41:29;;;;;;;;;;;8.90;99.90;;;;;;5108100;28;19911;-68
2022/04/25 00:43:55;;;;;;;;;;;8.90;99.90;;;;;;5110881;28;19914;-68
2022/04/25 00:46:22;;;;;;;;;;;8.80;99.90;;;;;;5107351;28;19908;-69
2022/04/25 00:48:48;;;;;;;;;;;8.80;99.90;;;;;;5110959;28;19912;-68
2022/04/25 00:51:13;;;;;;;;;;;8.80;99.90;;;;;;5111531;27;20315;-68
2022/04/25 00:53:39;;;;;;;;;;;8.70;99.90;;;;;;5115251;28;19912;-69
2022/04/25 00:56:05;;;;;;;;;;;8.80;99.90;;;;;;5110517;27;19908;-69
2022/04/25 00:58:31;;;;;;;;;;;8.80;99.90;;;;;;5108085;28;19908;-68
2022/04/25 01:00:56;;;;;;;;;;;8.70;99.90;;;;;;5104161;28;20221;-68
2022/04/25 01:03:22;;;;;;;;;;;8.60;99.90;;;;;;5108879;28;19915;-69
2022/04/25 01:05:47;;;;;;;;;;;8.50;99.90;;;;;;5104396;28;19907;-69
2022/04/25 01:08:13;;;;;;;;;;;8.50;99.90;;;;;;5119103;28;19918;-68
2022/04/25 01:10:39;;;;;;;;;;;8.50;99.90;;;;;;5107209;28;19981;-68
2022/04/25 01:13:04;;;;;;;;;;;8.40;99.90;;;;;;5112562;27;20057;-69
2022/04/25 01:15:31;;;;;;;;;;;8.40;99.90;;;;;;5104804;28;19948;-68
2022/04/25 01:17:57;;;;;;;;;;;8.40;99.90;;;;;;5107884;28;19907;-67
2022/04/25 01:20:22;;;;;;;;;;;8.30;99.90;;;;;;5109922;28;19914;-69
2022/04/25 01:22:57;;;;;;;;;;;8.40;99.90;;;;;;5117554;27;19915;-69
2022/04/25 01:28:07;;;;;;;;;;;8.30;99.90;;;;;;5105017;28;19918;-69
2022/04/25 01:30:32;;;;;;;;;;;8.40;99.90;;;;;;5113810;28;19911;-69
2022/04/25 01:32:58;;;;;;;;;;;8.30;99.90;;;;;;5107692;28;20349;-69
2022/04/25 01:35:24;;;;;;;;;;;8.20;99.90;;;;;;5103804;28;20007;-69
2022/04/25 01:37:50;;;;;;;;;;;8.10;99.90;;;;;;5103116;28;19907;-68
2022/04/25 01:40:15;;;;;;;;;;;8.10;99.90;;;;;;5112612;28;19907;-69
2022/04/25 01:42:42;;;;;;;;;;;8.10;99.90;;;;;;5103138;28;19908;-68
2022/04/25 01:45:08;;;;;;;;;;;8.10;99.90;;;;;;5112532;28;20117;-68
2022/04/25 01:47:33;;;;;;;;;;;8.20;99.90;;;;;;5106062;28;20017;-69
2022/04/25 01:49:59;;;;;;;;;;;8.10;99.90;;;;;;5112873;28;20318;-68
2022/04/25 01:52:24;;;;;;;;;;;8.00;99.90;;;;;;5106069;28;19947;-68
2022/04/25 01:54:50;;;;;;;;;;;8.10;99.90;;;;;;5102616;28;19912;-67
2022/04/25 01:57:16;;;;;;;;;;;8.00;99.90;;;;;;5106601;28;19915;-69
2022/04/25 01:59:43;;;;;;;;;;;8.00;99.90;;;;;;5106147;28;20379;-69
2022/04/25 02:02:09;;;;;;;;;;;7.90;99.90;;;;;;5102811;28;19915;-68
2022/04/25 02:04:34;;;;;;;;;;;7.90;99.90;;;;;;5098809;28;19908;-68
2022/04/25 02:07:03;;;;;;;;;;;7.90;99.90;;;;;;5100650;28;19930;-68
2022/04/25 02:09:28;;;;;;;;;;;7.80;99.90;;;;;;5105711;28;20463;-69
2022/04/25 02:11:54;;;;;;;;;;;7.80;99.90;;;;;;5107011;28;20010;-68
2022/04/25 02:14:19;;;;;;;;;;;7.90;99.90;;;;;;5108695;28;19908;-69
2022/04/25 02:16:46;;;;;;;;;;;7.80;99.90;;;;;;5103471;28;19957;-68
2022/04/25 02:19:12;;;;;;;;;;;7.90;99.90;;;;;;5109004;28;19912;-69
2022/04/25 02:21:37;;;;;;;;;;;7.90;99.90;;;;;;5101125;28;19915;-68
2022/04/25 02:24:03;;;;;;;;;;;7.90;99.90;;;;;;5107291;28;20000;-70
2022/04/25 02:26:29;;;;;;;;;;;7.90;99.90;;;;;;5103809;28;20354;-68
2022/04/25 02:28:54;;;;;;;;;;;7.90;99.90;;;;;;5113262;28;19982;-69
2022/04/25 02:31:20;;;;;;;;;;;7.90;99.90;;;;;;5112002;28;19915;-70
2022/04/25 02:33:46;;;;;;;;;;;7.90;99.90;;;;;;5102719;28;19941;-69
2022/04/25 02:36:12;;;;;;;;;;;8.10;99.90;;;;;;5099740;28;20001;-69
2022/04/25 02:38:39;;;;;;;;;;;8.10;99.90;;;;;;5109030;28;19911;-69
2022/04/25 02:41:05;;;;;;;;;;;8.10;99.90;;;;;;5106114;28;19907;-70
2022/04/25 02:43:34;;;;;;;;;;;8.10;99.90;;;;;;5101874;28;19915;-69
2022/04/25 02:46:01;;;;;;;;;;;8.20;99.90;;;;;;5106177;28;19907;-68
2022/04/25 02:48:26;;;;;;;;;;;8.10;99.90;;;;;;5107296;28;19951;-69
2022/04/25 02:50:52;;;;;;;;;;;8.00;99.90;;;;;;5107713;28;20386;-69
2022/04/25 02:53:17;;;;;;;;;;;8.00;99.90;;;;;;5098184;28;19918;-69
2022/04/25 02:55:43;;;;;;;;;;;8.00;99.90;;;;;;5101960;28;19939;-68
2022/04/25 02:58:09;;;;;;;;;;;8.10;99.90;;;;;;5100564;28;19943;-68
2022/04/25 03:00:34;;;;;;;;;;;8.20;99.90;;;;;;5101360;28;20015;-68
2022/04/25 03:03:00;;;;;;;;;;;8.10;99.90;;;;;;5110282;28;20038;-69
2022/04/25 03:05:26;;;;;;;;;;;8.10;99.90;;;;;;5107686;28;19911;-68
2022/04/25 03:07:51;;;;;;;;;;;8.10;99.90;;;;;;5111402;28;20406;-68
2022/04/25 03:10:17;;;;;;;;;;;8.10;99.90;;;;;;5108889;28;19912;-69
2022/04/25 03:12:42;;;;;;;;;;;8.00;99.90;;;;;;5104322;28;19919;-69
2022/04/25 03:15:08;;;;;;;;;;;7.90;99.90;;;;;;5107043;28;19933;-67
2022/04/25 03:17:33;;;;;;;;;;;8.10;99.90;;;;;;5100449;28;19911;-68
2022/04/25 03:19:59;;;;;;;;;;;8.10;99.90;;;;;;5110154;28;19908;-69
2022/04/25 03:22:25;;;;;;;;;;;8.10;99.90;;;;;;5099475;28;20361;-68
2022/04/25 03:24:50;;;;;;;;;;;8.10;99.90;;;;;;5110706;28;19908;-67
2022/04/25 03:27:16;;;;;;;;;;;8.10;99.90;;;;;;5097104;28;19958;-68
2022/04/25 03:29:41;;;;;;;;;;;8.10;99.90;;;;;;5105217;28;19908;-68
2022/04/25 03:32:07;;;;;;;;;;;8.20;99.90;;;;;;5109877;28;19911;-69
2022/04/25 03:34:36;;;;;;;;;;;8.20;99.90;;;;;;5112736;28;19919;-68
2022/04/25 03:37:02;;;;;;;;;;;8.30;99.90;;;;;;5095328;28;19960;-68
2022/04/25 03:39:29;;;;;;;;;;;8.30;99.90;;;;;;5106118;28;19908;-68
2022/04/25 03:41:54;;;;;;;;;;;8.30;99.90;;;;;;5112451;28;19908;-68
2022/04/25 03:44:20;;;;;;;;;;;8.40;99.90;;;;;;5105746;28;19915;-68
2022/04/25 03:46:46;;;;;;;;;;;8.40;99.90;;;;;;5092110;28;19908;-68
2022/04/25 03:49:13;;;;;;;;;;;8.30;99.90;;;;;;5103521;28;19966;-68
2022/04/25 03:51:39;;;;;;;;;;;8.40;99.90;;;;;;5106205;28;19958;-68
2022/04/25 03:54:04;;;;;;;;;;;8.30;99.90;;;;;;5097327;28;19973;-68
2022/04/25 03:59:14;;;;;;;;;;;8.30;99.90;;;;;;5106152;28;20318;-69
2022/04/25 04:01:40;;;;;;;;;;;8.20;99.90;;;;;;5092248;28;19907;-68
2022/04/25 04:04:05;;;;;;;;;;;8.10;99.90;;;;;;5094141;28;20373;-69
2022/04/25 04:06:32;;;;;;;;;;;8.10;99.90;;;;;;5097014;28;19915;-68
2022/04/25 04:08:58;;;;;;;;;;;8.10;99.90;;;;;;5098522;28;19904;-69
2022/04/25 04:11:45;;;;;;;;;;;8.10;99.90;;;;;;5100842;28;19916;-68
2022/04/25 04:14:09;;;;;;;;;;;8.20;99.90;;;;;;5100792;28;20387;-67
2022/04/25 04:16:34;;;;;;;;;;;8.20;99.90;;;;;;5102709;28;19908;-68
2022/04/25 04:19:00;;;;;;;;;;;8.10;99.90;;;;;;5099555;28;20022;-70
2022/04/25 04:21:25;;;;;;;;;;;8.10;99.90;;;;;;5101228;28;19946;-69
2022/04/25 04:23:51;;;;;;;;;;;8.10;99.90;;;;;;5107797;28;20455;-69
2022/04/25 04:26:16;;;;;;;;;;;8.10;99.90;;;;;;5111016;28;19907;-68
2022/04/25 04:28:42;;;;;;;;;;;8.10;99.90;;;;;;5099819;28;19949;-68
2022/04/25 04:31:08;;;;;;;;;;;8.10;99.90;;;;;;5102812;28;19935;-68
2022/04/25 04:33:33;;;;;;;;;;;8.00;99.90;;;;;;5104008;28;20341;-69
2022/04/25 04:36:17;;;;;;;;;;;8.00;99.90;;;;;;5105383;28;19912;-68
2022/04/25 04:38:43;;;;;;;;;;;8.00;99.90;;;;;;5106295;28;19908;-68
2022/04/25 04:41:09;;;;;;;;;;;8.00;99.90;;;;;;5104906;28;19908;-69
2022/04/25 04:43:34;;;;;;;;;;;8.00;99.90;;;;;;5104504;28;19908;-68
2022/04/25 04:46:00;;;;;;;;;;;7.90;99.90;;;;;;5104848;28;19908;-68
2022/04/25 04:48:26;;;;;;;;;;;7.90;99.90;;;;;;5100849;28;19915;-67
2022/04/25 04:50:55;;;;;;;;;;;7.90;99.90;;;;;;5111673;28;19914;-69
2022/04/25 04:53:21;;;;;;;;;;;7.90;99.90;;;;;;5100695;28;19908;-69
2022/04/25 04:55:47;;;;;;;;;;;7.90;99.90;;;;;;5105078;28;19961;-68
2022/04/25 04:58:13;;;;;;;;;;;7.90;99.90;;;;;;5106003;28;19915;-68
2022/04/25 05:00:39;;;;;;;;;;;7.90;99.90;;;;;;5101871;28;19995;-68
2022/04/25 05:03:05;;;;;;;;;;;7.80;99.90;;;;;;5109602;28;19956;-69
2022/04/25 05:05:31;;;;;;;;;;;7.90;99.90;;;;;;5109124;28;19955;-69
2022/04/25 05:07:56;;;;;;;;;;;7.90;99.90;;;;;;5105155;28;19911;-70
2022/04/25 05:10:22;;;;;;;;;;;7.90;99.90;;;;;;5107666;28;19915;-68
2022/04/25 05:12:53;;;;;;;;;;;7.70;99.90;;;;;;5103982;28;20280;-70
2022/04/25 05:15:19;;;;;;;;;;;7.70;99.90;;;;;;5100570;28;19952;-68
2022/04/25 05:17:48;;;;;;;;;;;7.80;99.90;;;;;;5108253;28;19912;-68
2022/04/25 05:20:14;;;;;;;;;;;7.70;99.90;;;;;;5111658;28;20132;-69
2022/04/25 05:22:41;;;;;;;;;;;7.70;99.90;;;;;;5113385;28;20369;-70
2022/04/25 05:25:07;;;;;;;;;;;7.80;99.90;;;;;;5108990;28;19995;-69
2022/04/25 05:27:33;;;;;;;;;;;7.90;99.90;;;;;;5113442;28;19998;-69
2022/04/25 05:29:59;;;;;;;;;;;8.00;99.90;;;;;;5115111;28;19908;-68
2022/04/25 05:32:24;;;;;;;;;;;7.90;99.90;;;;;;5111406;28;19915;-68
2022/04/25 05:34:50;;;;;;;;;;;7.80;99.90;;;;;;5109810;28;19992;-69
2022/04/25 05:37:15;;;;;;;;;;;8.00;99.90;;;;;;5113851;28;20038;-68
2022/04/25 05:39:41;;;;;;;;;;;8.00;99.90;;;;;;5108815;28;19955;-68
2022/04/25 05:42:07;;;;;;;;;;;8.20;99.90;;;;;;5112665;28;19912;-69
2022/04/25 05:44:33;;;;;;;;;;;8.20;99.90;;;;;;5112349;28;19928;-68
2022/04/25 05:46:59;;;;;;;;;;;8.20;99.90;;;;;;5114071;28;19904;-71
2022/04/25 05:52:08;;;;;;;;;;;8.50;99.90;;;;;;5112081;28;19923;-68
2022/04/25 05:54:34;;;;;;;;;;;8.60;99.90;;;;;;5106490;28;19911;-69
2022/04/25 05:57:00;;;;;;;;;;;8.60;99.90;;;;;;5114736;28;20277;-69
2022/04/25 05:59:27;;;;;;;;;;;8.70;99.90;;;;;;5107334;28;19960;-68
2022/04/25 06:01:53;;;;;;;;;;;8.60;99.90;;;;;;5114228;28;19921;-69
2022/04/25 06:04:19;;;;;;;;;;;8.70;99.90;;;;;;5113052;27;20006;-69
2022/04/25 06:06:45;;;;;;;;;;;8.80;99.90;;;;;;5111973;28;19908;-69
2022/04/25 06:09:10;;;;;;;;;;;8.90;99.90;;;;;;5115221;28;19949;-68
2022/04/25 06:11:36;;;;;;;;;;;8.90;99.90;;;;;;5110847;28;20398;-69
2022/04/25 06:14:02;;;;;;;;;;;8.90;99.90;;;;;;5110269;28;19942;-69
2022/04/25 06:16:28;;;;;;;;;;;8.90;99.90;;;;;;5111584;28;19908;-69
2022/04/25 06:18:53;;;;;;;;;;;8.90;99.90;;;;;;5103342;28;19908;-69
2022/04/25 06:21:19;;;;;;;;;;;8.90;99.90;;;;;;5108112;28;19907;-69
2022/04/25 06:23:44;;;;;;;;;;;8.80;99.90;;;;;;5085999;28;19920;-69
2022/04/25 06:26:10;;;;;;;;;;;8.80;99.90;;;;;;5096835;28;19919;-69
2022/04/25 06:28:36;;;;;;;;;;;8.80;99.90;;;;;;5106115;27;19926;-70
2022/04/25 06:31:02;;;;;;;;;;;8.80;99.90;;;;;;5107214;28;20373;-69
2022/04/25 06:33:28;;;;;;;;;;;9.00;99.90;;;;;;5107966;28;19959;-69
2022/04/25 06:35:53;;;;;;;;;;;9.10;99.90;;;;;;5110247;28;19931;-69
2022/04/25 06:38:19;;;;;;;;;;;8.90;99.90;;;;;;5106312;28;20360;-69
2022/04/25 06:40:48;;;;;;;;;;;9.10;99.90;;;;;;5107609;28;20367;-69
2022/04/25 06:43:14;;;;;;;;;;;9.20;99.90;;;;;;5108102;28;19908;-69
2022/04/25 06:45:40;;;;;;;;;;;9.30;99.90;;;;;;5106918;28;19919;-68
2022/04/25 06:48:06;;;;;;;;;;;9.30;99.90;;;;;;5107751;28;19908;-69
2022/04/25 06:50:32;;;;;;;;;;;9.40;99.90;;;;;;5106342;28;20280;-69
2022/04/25 06:52:57;;;;;;;;;;;9.30;99.90;;;;;;5108186;28;20356;-69
2022/04/25 06:55:23;;;;;;;;;;;9.20;99.90;;;;;;5110054;28;20001;-69
2022/04/25 06:57:48;;;;;;;;;;;9.20;99.90;;;;;;5099675;28;22113;-69
2022/04/25 07:00:17;;;;;;;;;;;9.10;99.90;;;;;;5107620;28;19953;-71
2022/04/25 07:02:44;;;;;;;;;;;9.10;99.90;;;;;;5105586;28;19944;-69
2022/04/25 07:05:10;;;;;;;;;;;9.10;99.90;;;;;;5100652;28;20440;-70
2022/04/25 07:07:38;;;;;;;;;;;9.10;99.90;;;;;;5112629;28;20357;-69
2022/04/25 07:10:04;;;;;;;;;;;9.10;99.90;;;;;;5112212;28;19914;-70
2022/04/25 07:12:29;;;;;;;;;;;9.20;99.90;;;;;;5102513;28;19954;-71
2022/04/25 07:14:55;;;;;;;;;;;9.30;99.90;;;;;;5102262;28;19907;-68
2022/04/25 07:17:20;;;;;;;;;;;9.30;99.90;;;;;;5098487;28;19908;-69
2022/04/25 07:19:46;;;;;;;;;;;9.30;99.90;;;;;;5103618;28;19914;-69
2022/04/25 07:30:24;;;;;;;;;;;9.60;99.90;;;;;;5097818;28;19950;-70
2022/04/25 07:32:50;;;;;;;;;;;9.70;99.90;;;;;;5107430;28;19955;-69
2022/04/25 07:35:15;;;;;;;;;;;9.70;99.90;;;;;;5104018;28;19912;-70
2022/04/25 07:37:42;;;;;;;;;;;9.70;99.90;;;;;;5110262;28;19911;-69
2022/04/25 07:40:08;;;;;;;;;;;9.80;99.90;;;;;;5110407;28;19908;-69
2022/04/25 07:42:39;;;;;;;;;;;10.00;99.90;;;;;;5110763;28;19908;-69
2022/04/25 07:45:12;;;;;;;;;;;10.20;99.90;;;;;;5113888;28;19958;-70
2022/04/25 07:47:42;;;;;;;;;;;10.00;99.90;;;;;;5108979;28;19976;-70
2022/04/25 07:50:09;;;;;;;;;;;10.00;99.90;;;;;;5105941;28;19918;-71
2022/04/25 07:52:34;;;;;;;;;;;10.20;99.90;;;;;;5095615;28;20350;-69
2022/04/25 07:55:01;;;;;;;;;;;10.10;99.90;;;;;;5104045;28;20007;-68
2022/04/25 07:57:28;;;;;;;;;;;10.30;99.90;;;;;;5100630;28;19948;-70
2022/04/25 07:59:53;;;;;;;;;;;10.20;99.90;;;;;;5096826;28;19908;-69
2022/04/25 08:02:20;;;;;;;;;;;10.10;99.90;;;;;;5096937;28;19922;-70
2022/04/25 08:04:46;;;;;;;;;;;10.10;99.90;;;;;;5107851;28;20430;-70
2022/04/25 08:07:12;;;;;;;;;;;10.10;99.90;;;;;;5093522;28;19908;-69
2022/04/25 08:09:38;;;;;;;;;;;10.10;99.90;;;;;;5103063;28;19907;-69
2022/04/25 08:20:20;;;;;;;;;;;10.50;99.90;;;;;;5110248;28;19999;-69
2022/04/25 08:22:46;;;;;;;;;;;10.50;99.90;;;;;;5101800;28;19955;-70
2022/04/25 08:25:12;;;;;;;;;;;10.70;99.90;;;;;;5102753;28;19953;-70
2022/04/25 08:27:38;;;;;;;;;;;10.90;99.90;;;;;;5099550;28;19908;-70
2022/04/25 08:30:04;;;;;;;;;;;11.10;99.90;;;;;;5111212;28;20283;-70
2022/04/25 08:32:33;;;;;;;;;;;11.20;99.90;;;;;;5111014;28;19911;-70
2022/04/25 08:35:02;;;;;;;;;;;11.20;99.90;;;;;;5115783;28;20350;-70
2022/04/25 08:37:27;;;;;;;;;;;11.50;99.90;;;;;;5108114;28;19904;-69
2022/04/25 08:39:53;;;;;;;;;;;11.70;99.90;;;;;;5100851;28;19952;-69
2022/04/25 08:42:19;;;;;;;;;;;11.40;99.90;;;;;;5117014;28;19947;-70
2022/04/25 08:44:45;;;;;;;;;;;11.30;99.90;;;;;;5105367;28;19947;-68
2022/04/25 08:47:13;;;;;;;;;;;11.30;99.90;;;;;;5112210;28;19908;-69
2022/04/25 08:49:39;;;;;;;;;;;11.50;99.90;;;;;;5111023;28;19907;-70
2022/04/25 08:52:05;;;;;;;;;;;11.60;99.90;;;;;;5112125;28;19919;-70
2022/04/25 08:54:32;;;;;;;;;;;11.70;99.90;;;;;;5107428;28;19911;-70
2022/04/25 08:57:01;;;;;;;;;;;11.80;99.90;;;;;;5107039;28;20010;-70
2022/04/25 08:59:26;;;;;;;;;;;11.80;99.90;;;;;;5112911;28;19908;-69
2022/04/25 09:01:53;;;;;;;;;;;11.70;99.90;;;;;;5108594;27;20010;-69
2022/04/25 09:04:19;;;;;;;;;;;11.60;99.90;;;;;;5108802;28;20487;-71
2022/04/25 09:06:46;;;;;;;;;;;11.60;99.90;;;;;;5112272;28;19907;-69
2022/04/25 09:09:11;;;;;;;;;;;11.60;99.90;;;;;;5109728;28;19953;-70
2022/04/25 09:14:24;;;;;;;;;;;12.00;99.90;;;;;;5101818;28;19960;-70
2022/04/25 09:16:49;;;;;;;;;;;11.80;99.90;;;;;;5104265;28;19919;-70
2022/04/25 09:19:15;;;;;;;;;;;11.80;99.90;;;;;;5111179;27;19908;-71
2022/04/25 09:21:42;;;;;;;;;;;11.90;99.90;;;;;;5106514;28;19919;-69
2022/04/25 09:24:23;;;;;;;;;;;11.90;99.90;;;;;;5110392;28;19954;-70
2022/04/25 09:26:53;;;;;;;;;;;11.60;99.90;;;;;;5106742;28;20006;-70
2022/04/25 09:29:26;;;;;;;;;;;11.70;99.90;;;;;;5110191;27;19962;-69
2022/04/25 09:31:51;;;;;;;;;;;11.70;99.90;;;;;;5105473;28;19912;-71
2022/04/25 09:34:59;;;;;;;;;;;11.70;99.90;;;;;;5104739;28;19919;-70
2022/04/25 09:37:04;;;;;;;;;;;11.70;99.90;;;;;;5116697;28;19976;-70
2022/04/25 09:39:30;;;;;;;;;;;11.90;99.90;;;;;;5099687;28;19957;-69
2022/04/25 09:42:02;;;;;;;;;;;12.00;99.90;;;;;;5107870;28;19908;-69
2022/04/25 09:44:47;;;;;;;;;;;12.30;99.90;;;;;;5100912;28;20269;-69
2022/04/25 09:47:23;;;;;;;;;;;12.50;99.90;;;;;;5091365;28;19929;-69
2022/04/25 09:49:57;;;;;;;;;;;12.60;99.90;;;;;;5111750;28;19908;-69
2022/04/25 09:52:22;;;;;;;;;;;12.80;99.90;;;;;;5110226;28;20052;-70
2022/04/25 09:54:48;;;;;;;;;;;13.10;99.90;;;;;;5110401;28;20010;-69
2022/04/25 09:57:30;;;;;;;;;;;13.30;99.90;;;;;;5108660;28;19916;-70
2022/04/25 10:00:01;;;;;;;;;;;13.30;99.90;;;;;;5113142;28;19923;-69
2022/04/25 10:02:27;;;;;;;;;;;13.20;99.90;;;;;;5111207;27;19983;-69
2022/04/25 10:04:53;;;;;;;;;;;12.90;99.90;;;;;;5110614;28;20292;-69
2022/04/25 10:07:20;;;;;;;;;;;12.80;99.90;;;;;;5107389;28;20383;-69
2022/04/25 10:09:49;;;;;;;;;;;12.80;99.90;;;;;;5106383;28;19988;-69
2022/04/25 10:12:15;;;;;;;;;;;12.80;99.90;;;;;;5105090;27;20014;-69
2022/04/25 10:14:41;;;;;;;;;;;12.70;99.90;;;;;;5111162;28;19999;-69
2022/04/25 10:17:07;;;;;;;;;;;12.80;99.90;;;;;;5116203;27;20322;-70
2022/04/25 10:19:32;;;;;;;;;;;12.90;99.90;;;;;;5113374;28;20410;-70
2022/04/25 10:21:58;;;;;;;;;;;13.00;99.90;;;;;;5107959;27;20307;-70
2022/04/25 10:24:24;;;;;;;;;;;13.20;99.90;;;;;;5112877;28;19908;-68
2022/04/25 10:26:51;;;;;;;;;;;13.40;99.90;;;;;;5111569;28;22638;-69
2022/04/25 10:29:31;;;;;;;;;;;13.50;99.90;;;;;;5100876;28;19915;-69
2022/04/25 10:32:00;;;;;;;;;;;13.50;99.90;;;;;;5095633;28;19912;-69
2022/04/25 10:34:46;;;;;;;;;;;13.20;99.90;;;;;;5112213;28;19965;-70
2022/04/25 10:37:28;;;;;;;;;;;13.20;99.90;;;;;;5101833;28;19922;-69
2022/04/25 10:39:54;;;;;;;;;;;13.10;99.90;;;;;;5109159;28;20006;-70
2022/04/25 10:45:04;;;;;;;;;;;13.10;99.90;;;;;;5107341;28;20257;-70
2022/04/25 10:47:30;;;;;;;;;;;13.20;99.90;;;;;;5104720;28;19908;-70
2022/04/25 10:49:56;;;;;;;;;;;13.10;99.90;;;;;;5109784;28;19908;-69
2022/04/25 10:52:37;;;;;;;;;;;13.10;99.90;;;;;;5109240;28;19995;-69
2022/04/25 10:55:13;;;;;;;;;;;13.10;99.90;;;;;;5105027;28;19911;-69
2022/04/25 10:57:58;;;;;;;;;;;13.20;99.90;;;;;;5098660;28;19947;-70
2022/04/25 11:00:56;;;;;;;;;;;13.50;99.90;;;;;;5097176;28;19948;-70
2022/04/25 11:03:23;;;;;;;;;;;13.50;99.90;;;;;;5105305;28;19908;-70
2022/04/25 11:05:50;;;;;;;;;;;13.50;99.90;;;;;;5095329;28;19992;-70
2022/04/25 11:08:18;;;;;;;;;;;13.50;99.90;;;;;;5099058;28;19951;-70
2022/04/25 11:10:45;;;;;;;;;;;13.60;99.90;;;;;;5098317;28;19935;-70
2022/04/25 11:13:12;;;;;;;;;;;13.90;99.90;;;;;;5097264;28;19916;-69
2022/04/25 11:15:38;;;;;;;;;;;13.90;99.90;;;;;;5096770;28;19950;-70
2022/04/25 11:18:28;;;;;;;;;;;13.80;99.90;;;;;;5099016;28;20312;-70
2022/04/25 11:20:54;;;;;;;;;;;13.90;99.90;;;;;;5105592;28;19908;-70
2022/04/25 11:23:26;;;;;;;;;;;13.90;99.90;;;;;;5095312;28;19907;-69
2022/04/25 11:25:53;;;;;;;;;;;13.80;99.90;;;;;;5102953;28;19904;-70
2022/04/25 11:28:19;;;;;;;;;;;13.90;99.90;;;;;;5093491;28;19911;-70
2022/04/25 11:31:05;;;;;;;;;;;13.90;99.90;;;;;;5106540;28;19919;-70
2022/04/25 11:33:39;;;;;;;;;;;13.90;99.90;;;;;;5096676;28;19968;-69
2022/04/25 11:36:05;;;;;;;;;;;14.10;99.90;;;;;;5107310;28;19907;-71
2022/04/25 11:39:50;;;;;;;;;;;14.30;99.90;;;;;;5105926;28;19914;-70
2022/04/25 11:41:21;;;;;;;;;;;14.50;99.90;;;;;;5093260;28;19923;-68
2022/04/25 11:43:47;;;;;;;;;;;14.60;98.50;;;;;;5119059;27;19951;-71
2022/04/25 11:46:13;;;;;;;;;;;14.70;98.60;;;;;;5093355;28;19954;-70
2022/04/25 11:48:39;;;;;;;;;;;14.60;99.40;;;;;;5106228;28;19908;-70
2022/04/25 11:51:04;;;;;;;;;;;14.70;98.50;;;;;;5104222;28;19926;-69
2022/04/25 11:53:31;;;;;;;;;;;14.90;98.10;;;;;;5096918;28;19990;-70
2022/04/25 11:55:57;;;;;;;;;;;15.10;98.10;;;;;;5099066;28;19943;-69
2022/04/25 11:58:29;;;;;;;;;;;15.30;96.40;;;;;;5105875;28;19908;-73
2022/04/25 12:00:54;;;;;;;;;;;15.20;96.60;;;;;;5100496;28;20274;-71
2022/04/25 12:03:21;;;;;;;;;;;15.10;96.40;;;;;;5093478;28;19908;-70
2022/04/25 12:05:46;;;;;;;;;;;15.10;96.00;;;;;;5105425;28;19914;-71
2022/04/25 12:16:28;;;;;;;;;;;15.80;94.90;;;;;;5093669;28;19961;-70
2022/04/25 12:19:00;;;;;;;;;;;15.70;94.90;;;;;;5099074;28;19912;-70
2022/04/25 12:21:25;;;;;;;;;;;15.70;95.20;;;;;;5097368;28;20297;-71
2022/04/25 12:23:53;;;;;;;;;;;15.70;94.20;;;;;;5104996;28;19913;-71
2022/04/25 12:26:20;;;;;;;;;;;15.80;94.10;;;;;;5106025;28;20344;-70
2022/04/25 12:28:55;;;;;;;;;;;15.50;93.90;;;;;;5097467;28;19912;-69
2022/04/25 12:31:21;;;;;;;;;;;15.70;94.10;;;;;;5095896;28;19938;-70
2022/04/25 12:33:47;;;;;;;;;;;15.60;93.90;;;;;;5097042;28;19918;-69
2022/04/25 12:36:16;;;;;;;;;;;15.60;93.90;;;;;;5097448;28;20345;-70
2022/04/25 12:38:50;;;;;;;;;;;15.20;95.00;;;;;;5100161;28;19915;-69
2022/04/25 12:41:26;;;;;;;;;;;15.10;94.70;;;;;;5112785;28;20261;-71
2022/04/25 12:43:55;;;;;;;;;;;14.90;95.00;;;;;;5108155;28;20307;-71
2022/04/25 12:46:35;;;;;;;;;;;14.90;95.00;;;;;;5101875;28;19908;-71
2022/04/25 12:49:07;;;;;;;;;;;14.90;95.10;;;;;;5091672;28;19996;-71
2022/04/25 12:51:38;;;;;;;;;;;15.10;95.10;;;;;;5098097;28;19951;-70
2022/04/25 12:54:05;;;;;;;;;;;15.30;94.30;;;;;;5109008;28;20402;-70
2022/04/25 12:56:32;;;;;;;;;;;15.60;94.10;;;;;;5101002;28;19930;-69
2022/04/25 12:58:58;;;;;;;;;;;15.80;92.40;;;;;;5099816;28;19946;-71
2022/04/25 13:01:29;;;;;;;;;;;16.00;92.10;;;;;;5109266;28;20253;-71
2022/04/25 13:04:05;;;;;;;;;;;16.00;91.30;;;;;;5097009;28;19989;-70
2022/04/25 13:06:31;;;;;;;;;;;16.20;90.00;;;;;;5094655;28;20416;-71
2022/04/25 13:08:56;;;;;;;;;;;16.20;91.30;;;;;;5102599;28;19950;-70
2022/04/25 13:11:22;;;;;;;;;;;16.30;91.80;;;;;;5101254;28;19924;-70
2022/04/25 13:13:48;;;;;;;;;;;16.40;91.80;;;;;;5109943;28;19907;-70
2022/04/25 13:16:14;;;;;;;;;;;16.60;91.50;;;;;;5101407;28;19912;-71
2022/04/25 13:18:39;;;;;;;;;;;16.50;91.60;;;;;;5099068;28;20341;-70
2022/04/25 13:21:05;;;;;;;;;;;16.40;90.50;;;;;;5105847;28;19915;-71
2022/04/25 13:23:30;;;;;;;;;;;16.20;90.00;;;;;;5101696;27;19911;-70
2022/04/25 13:25:56;;;;;;;;;;;16.00;90.40;;;;;;5104519;28;19907;-70
2022/04/25 13:28:21;;;;;;;;;;;16.00;89.70;;;;;;5109938;28;19904;-70
2022/04/25 13:30:51;;;;;;;;;;;16.10;89.30;;;;;;5102129;28;20385;-70
2022/04/25 13:33:17;;;;;;;;;;;16.20;89.30;;;;;;5113892;28;20219;-70
2022/04/25 13:35:43;;;;;;;;;;;16.40;89.20;;;;;;5103281;28;19908;-70
2022/04/25 13:38:08;;;;;;;;;;;16.60;89.30;;;;;;5106084;28;20238;-71
2022/04/25 13:40:34;;;;;;;;;;;16.70;87.90;;;;;;5100675;28;19916;-70
2022/04/25 13:43:04;;;;;;;;;;;16.70;88.60;;;;;;5107237;28;19903;-71
2022/04/25 13:45:30;;;;;;;;;;;16.70;89.30;;;;;;5094557;28;19912;-69
2022/04/25 13:47:56;;;;;;;;;;;16.50;89.10;;;;;;5100310;28;19904;-70
2022/04/25 13:50:21;;;;;;;;;;;16.50;89.00;;;;;;5105403;28;19908;-69
2022/04/25 13:52:47;;;;;;;;;;;16.50;89.10;;;;;;5106699;28;20306;-70
2022/04/25 13:55:13;;;;;;;;;;;16.70;88.20;;;;;;5100825;28;20459;-71
2022/04/25 13:57:38;;;;;;;;;;;16.70;87.00;;;;;;5106986;28;19908;-70
2022/04/25 14:00:04;;;;;;;;;;;16.80;84.60;;;;;;5103969;27;19907;-69
2022/04/25 14:05:14;;;;;;;;;;;17.10;83.70;;;;;;5111011;28;20346;-71
2022/04/25 14:07:39;;;;;;;;;;;17.30;83.70;;;;;;5103814;28;19904;-71
2022/04/25 14:10:05;;;;;;;;;;;17.50;82.70;;;;;;5111507;27;19904;-70
2022/04/25 14:12:31;;;;;;;;;;;17.10;83.00;;;;;;5108049;28;19916;-70
2022/04/25 14:14:56;;;;;;;;;;;17.10;85.80;;;;;;5112005;28;19912;-70
2022/04/25 14:17:22;;;;;;;;;;;17.20;83.70;;;;;;5107067;28;19908;-71
2022/04/25 14:19:48;;;;;;;;;;;16.80;83.40;;;;;;5097280;28;19949;-70
2022/04/25 14:22:14;;;;;;;;;;;16.50;84.80;;;;;;5106821;28;20291;-71
2022/04/25 14:24:39;;;;;;;;;;;16.30;85.60;;;;;;5107162;28;20006;-71
2022/04/25 14:27:05;;;;;;;;;;;16.20;85.80;;;;;;5108992;28;19968;-71
2022/04/25 14:29:31;;;;;;;;;;;16.20;86.70;;;;;;5094557;28;19912;-71
2022/04/25 14:31:57;;;;;;;;;;;16.50;85.70;;;;;;5103474;28;20018;-71
2022/04/25 14:34:25;;;;;;;;;;;16.80;84.30;;;;;;5093831;28;20442;-71
2022/04/25 14:36:50;;;;;;;;;;;16.80;83.20;;;;;;5112255;28;19908;-71
2022/04/25 14:39:16;;;;;;;;;;;16.70;83.20;;;;;;5105783;28;20405;-70
2022/04/25 14:41:42;;;;;;;;;;;16.70;80.60;;;;;;5103984;28;19908;-71
2022/04/25 14:44:10;;;;;;;;;;;16.60;81.80;;;;;;5105860;28;19908;-69
2022/04/25 14:46:37;;;;;;;;;;;16.70;81.50;;;;;;5108006;28;19907;-71
2022/04/25 14:49:02;;;;;;;;;;;16.80;81.80;;;;;;5101835;28;20325;-70
2022/04/25 14:54:21;;;;;;;;;;;16.80;80.80;;;;;;5101915;28;20775;-70
2022/04/25 14:56:48;;;;;;;;;;;16.80;81.10;;;;;;5095009;28;19907;-70
2022/04/25 14:59:15;;;;;;;;;;;17.10;80.30;;;;;;5096646;28;19912;-71
2022/04/25 15:01:40;;;;;;;;;;;17.50;79.50;;;;;;5096927;28;19908;-71
2022/04/25 15:04:06;;;;;;;;;;;17.80;78.70;;;;;;5106262;28;19918;-72
2022/04/25 15:06:32;;;;;;;;;;;17.50;78.30;;;;;;5080733;28;19970;-71